Portada
METAR-TAF:

METAR-TAF

Aeroports :

South Jersey Regional Airport

Mount Holly, Nova Jersey, Estats Units d'Amèrica

latitud: 39-56-26N, longitud: 074-50-28W, altitud: 16 m

Observació

L'informe es va fer fa 48 minuts, a les 17:54 UTC
Vent 6 kt del Sud-Oest
Temperatura 32°C
Humitat 43%
Pressió 1018 hPa
Visibilitat: 16.1 km
Cel clar

METAR: KVAY 161754Z AUTO 23006KT 10SM CLR 32/18 A3005 RMK AO2 SLP176 T03220178 58013

Hora: 14:42 (18:42 UTC)


TAF: manca

Observacions i pronòstics meteorològics de més de 4000 aeroports (METAR i TAF).

Les estacions disponibles són els punts grocs i vermells al mapa.

Posi el ratolí al punt desitjat per veure el nom de l'estació.

Feu clic per veure les observacions i els pronòstics meteorològics.

Per canviar el mapa: feu clic els botons verds amb una creu de color negre per apropar; al botó verd amb un guió per allunyar la imatge; o en les fletxes verdes per a mapes adjacents.


METAR-TAF: